Clarkton, North Carolina
Current Conditions -  °F | °C
As of 5:55 AM on Sunday 23 Nov 2014 (Local Time) from KEYF Reporting Station
Light Rain Light Rain  
Wind Chill: 47°   Ceiling: 6000
Heat Index: 49°   Visibility: 7mi
Dew Point: 48°   Wind: 5mph
Humidity: 99%   Direction: 140°SE
Pressure: 30.24"   Gusts: NA
Location:  34.49°N, 78.66°W
Report Text: KEYF 231055Z AUTO 14004KT 7SM -RA SCT047 BKN060 OVC100 09/09 A3024 RMK AO2 P0004 T00920091
Loading
Personal Weather Stations






























Interactive Weather Map New forecast layout! Learn more

10-Day Weather Forecast

Advertisements
Track Severe Weather on mobile